createdAt,value
2022-12-20T00:01:21.086Z,18.00
2022-12-20T00:03:51.363Z,17.60
2022-12-20T00:06:18.985Z,17.60
2022-12-20T00:08:46.431Z,15.50
2022-12-20T00:11:13.980Z,17.50
2022-12-20T00:13:40.800Z,19.00
2022-12-20T00:16:20.228Z,20.30
2022-12-20T00:18:52.368Z,15.70
2022-12-20T00:21:19.162Z,17.70
2022-12-20T00:23:45.931Z,21.00
2022-12-20T00:26:15.711Z,19.20
2022-12-20T00:28:43.416Z,17.00
2022-12-20T00:31:11.528Z,18.00
2022-12-20T00:33:40.190Z,16.10
2022-12-20T00:36:09.397Z,17.20
2022-12-20T00:38:36.668Z,22.20
2022-12-20T00:41:07.639Z,20.50
2022-12-20T00:43:37.387Z,18.80
2022-12-20T00:48:33.717Z,17.60
2022-12-20T00:51:04.255Z,21.10
2022-12-20T00:53:31.822Z,19.90
2022-12-20T00:55:59.006Z,21.00
2022-12-20T00:58:26.791Z,22.40
2022-12-20T01:03:24.645Z,21.30
2022-12-20T01:05:57.409Z,21.00
2022-12-20T01:08:25.068Z,19.90
2022-12-20T01:11:00.295Z,20.40
2022-12-20T01:13:27.414Z,20.30
2022-12-20T01:15:54.190Z,20.50
2022-12-20T01:18:20.944Z,19.10
2022-12-20T01:20:47.692Z,21.00
2022-12-20T01:23:14.460Z,19.20
2022-12-20T01:25:41.143Z,16.00
2022-12-20T01:28:07.928Z,16.90
2022-12-20T01:30:34.688Z,18.10
2022-12-20T01:33:01.492Z,17.50
2022-12-20T01:35:28.259Z,18.60
2022-12-20T01:37:54.959Z,18.90
2022-12-20T01:40:21.666Z,18.10
2022-12-20T01:42:48.395Z,20.40
2022-12-20T01:45:26.013Z,18.00
2022-12-20T01:47:52.822Z,17.90
2022-12-20T01:50:19.956Z,17.50
2022-12-20T01:52:47.882Z,17.60
2022-12-20T01:55:22.750Z,16.90
2022-12-20T01:57:52.880Z,15.90
2022-12-20T02:00:20.329Z,15.80
2022-12-20T02:05:16.849Z,15.80
2022-12-20T02:07:48.407Z,18.40
2022-12-20T02:10:17.220Z,17.90
2022-12-20T02:12:46.377Z,17.20
2022-12-20T02:15:43.745Z,16.20
2022-12-20T02:18:24.105Z,16.50
2022-12-20T02:21:09.618Z,16.10
2022-12-20T02:24:07.371Z,16.50
2022-12-20T02:27:03.648Z,14.90
2022-12-20T02:30:00.229Z,17.70
2022-12-20T02:32:33.906Z,17.10
2022-12-20T02:35:04.761Z,15.80
2022-12-20T02:37:31.959Z,15.60
2022-12-20T02:40:00.217Z,12.40
2022-12-20T02:42:28.837Z,14.90
2022-12-20T02:45:17.055Z,15.60
2022-12-20T02:48:00.485Z,15.10
2022-12-20T02:50:34.669Z,17.90
2022-12-20T02:53:01.583Z,15.80
2022-12-20T02:55:56.724Z,16.00
2022-12-20T02:58:46.807Z,16.90
2022-12-20T03:01:24.975Z,16.30
2022-12-20T03:03:55.273Z,13.90
2022-12-20T03:06:22.083Z,14.70
2022-12-20T03:08:48.825Z,16.70
2022-12-20T03:11:16.118Z,16.80
2022-12-20T03:13:42.995Z,17.80
2022-12-20T03:16:10.978Z,15.50
2022-12-20T03:18:37.889Z,16.40
2022-12-20T03:21:04.661Z,16.00
2022-12-20T03:23:32.034Z,15.90
2022-12-20T03:25:58.753Z,15.30
2022-12-20T03:28:33.202Z,16.60
2022-12-20T03:31:00.153Z,16.40
2022-12-20T03:33:27.380Z,18.60
2022-12-20T03:35:54.387Z,17.80
2022-12-20T03:38:21.302Z,18.10
2022-12-20T03:40:48.035Z,11.30
2022-12-20T03:43:17.462Z,17.50
2022-12-20T03:45:44.205Z,17.20
2022-12-20T03:48:11.063Z,17.30
2022-12-20T03:50:38.212Z,15.10
2022-12-20T03:53:05.297Z,15.30
2022-12-20T03:55:32.690Z,16.10
2022-12-20T03:57:59.969Z,18.90
2022-12-20T04:00:35.679Z,15.60
2022-12-20T04:03:24.838Z,15.90
2022-12-20T04:05:52.002Z,14.80
2022-12-20T04:08:18.967Z,17.10
2022-12-20T04:11:05.718Z,17.30
2022-12-20T04:13:34.152Z,15.70
2022-12-20T04:16:01.540Z,14.90
2022-12-20T04:18:31.232Z,18.90
2022-12-20T04:21:03.763Z,17.40
2022-12-20T04:23:31.053Z,15.20
2022-12-20T04:25:58.412Z,16.40
2022-12-20T04:28:25.271Z,15.50
2022-12-20T04:30:53.602Z,15.40
2022-12-20T04:33:23.830Z,17.20
2022-12-20T04:35:50.761Z,17.60
2022-12-20T04:38:18.455Z,14.70
2022-12-20T04:40:53.115Z,17.00
2022-12-20T04:43:20.996Z,19.90
2022-12-20T04:48:54.762Z,15.70
2022-12-20T04:51:03.028Z,17.30
2022-12-20T04:53:49.882Z,15.90
2022-12-20T04:56:39.149Z,15.60
2022-12-20T04:59:11.021Z,17.20
2022-12-20T05:01:39.259Z,15.10
2022-12-20T05:04:06.153Z,16.90
2022-12-20T05:06:37.165Z,17.60
2022-12-20T05:09:04.443Z,17.00
2022-12-20T05:11:32.119Z,14.70
2022-12-20T05:13:59.284Z,15.10
2022-12-20T05:16:26.142Z,16.40
2022-12-20T05:18:53.259Z,15.40
2022-12-20T05:21:39.260Z,15.10
2022-12-20T05:24:25.451Z,15.20
2022-12-20T05:27:09.736Z,13.50
2022-12-20T05:29:36.481Z,16.50
2022-12-20T05:32:03.461Z,15.80
2022-12-20T05:34:32.885Z,15.60
2022-12-20T05:36:59.597Z,15.10
2022-12-20T05:39:31.073Z,15.20
2022-12-20T05:41:59.945Z,14.40
2022-12-20T05:44:27.737Z,14.90
2022-12-20T05:46:56.662Z,16.80
2022-12-20T05:49:27.296Z,15.10
2022-12-20T05:51:54.506Z,18.20
2022-12-20T05:54:25.421Z,15.80
2022-12-20T05:57:03.709Z,16.00
2022-12-20T05:59:35.971Z,15.50
2022-12-20T06:02:04.072Z,15.00
2022-12-20T06:04:33.175Z,17.70
2022-12-20T06:07:05.674Z,14.80
2022-12-20T06:09:33.308Z,14.30
2022-12-20T06:12:05.719Z,15.20
2022-12-20T06:14:33.816Z,17.40
2022-12-20T06:17:01.982Z,16.00
2022-12-20T06:19:30.452Z,16.60
2022-12-20T06:24:36.451Z,14.80
2022-12-20T06:27:03.632Z,15.90
2022-12-20T06:29:30.550Z,16.10
2022-12-20T06:32:08.367Z,16.20
2022-12-20T06:34:35.279Z,15.10
2022-12-20T06:37:02.199Z,17.30
2022-12-20T06:39:32.293Z,16.80
2022-12-20T06:42:04.610Z,15.40
2022-12-20T06:44:31.491Z,16.90
2022-12-20T06:46:59.117Z,16.40
2022-12-20T06:49:25.862Z,17.10
2022-12-20T06:51:53.173Z,15.50
2022-12-20T06:54:25.763Z,14.30
2022-12-20T06:56:52.481Z,17.70
2022-12-20T06:59:19.670Z,18.00
2022-12-20T07:01:46.618Z,17.50
2022-12-20T07:04:13.453Z,15.40
2022-12-20T07:06:40.159Z,16.00
2022-12-20T07:09:06.985Z,18.00
2022-12-20T07:11:33.688Z,16.20
2022-12-20T07:14:00.665Z,16.30
2022-12-20T07:16:27.497Z,16.60
2022-12-20T07:18:55.403Z,17.20
2022-12-20T07:21:22.189Z,18.60
2022-12-20T07:23:49.351Z,18.50
2022-12-20T07:26:16.576Z,16.70
2022-12-20T07:28:43.795Z,17.20
2022-12-20T07:31:10.884Z,16.70
2022-12-20T07:33:38.834Z,17.70
2022-12-20T07:36:12.554Z,18.10
2022-12-20T07:38:39.595Z,16.30
2022-12-20T07:41:11.252Z,19.30
2022-12-20T07:43:38.294Z,17.20
2022-12-20T07:46:06.590Z,16.70
2022-12-20T07:48:34.361Z,17.90
2022-12-20T07:53:52.719Z,16.80
2022-12-20T07:56:21.232Z,15.60
2022-12-20T07:58:52.063Z,17.80
2022-12-20T08:01:19.969Z,18.40
2022-12-20T08:03:51.516Z,20.90
2022-12-20T08:06:19.654Z,17.90
2022-12-20T08:08:51.581Z,17.50
2022-12-20T08:11:19.742Z,20.90
2022-12-20T08:13:48.792Z,19.80
2022-12-20T08:16:18.299Z,20.70
2022-12-20T08:18:45.118Z,20.70
2022-12-20T08:21:13.214Z,17.50
2022-12-20T08:23:40.370Z,18.10
2022-12-20T08:26:07.102Z,21.60
2022-12-20T08:28:33.851Z,20.40
2022-12-20T08:31:02.992Z,18.20
2022-12-20T08:33:30.056Z,19.80
2022-12-20T08:35:58.828Z,21.50
2022-12-20T08:38:27.735Z,21.50
2022-12-20T08:40:54.978Z,20.60
2022-12-20T08:43:21.674Z,21.10
2022-12-20T08:45:55.489Z,20.20
2022-12-20T08:48:23.013Z,20.90
2022-12-20T08:51:02.051Z,20.20
2022-12-20T08:53:29.696Z,20.60
2022-12-20T08:56:16.325Z,20.10
2022-12-20T08:58:44.807Z,19.20
2022-12-20T09:01:15.062Z,19.30
2022-12-20T09:03:42.924Z,21.80
2022-12-20T09:06:13.489Z,20.80
2022-12-20T09:08:41.134Z,22.10
2022-12-20T09:11:09.319Z,24.30
2022-12-20T09:13:41.642Z,22.40
2022-12-20T09:16:11.728Z,20.80
2022-12-20T09:18:38.570Z,24.30
2022-12-20T09:21:07.045Z,21.80
2022-12-20T09:23:35.426Z,21.30
2022-12-20T09:26:08.167Z,22.70
2022-12-20T09:28:35.465Z,22.50
2022-12-20T09:31:04.960Z,21.50
2022-12-20T09:33:34.899Z,24.40
2022-12-20T09:36:02.999Z,20.80
2022-12-20T09:38:31.359Z,24.00
2022-12-20T09:41:04.505Z,21.80
2022-12-20T09:43:32.575Z,23.00
2022-12-20T09:46:02.451Z,24.00
2022-12-20T09:48:33.827Z,23.80
2022-12-20T09:51:12.028Z,21.10
2022-12-20T09:54:16.355Z,22.20
2022-12-20T09:57:07.811Z,23.20
2022-12-20T09:59:42.237Z,21.70
2022-12-20T10:02:55.131Z,22.40
2022-12-20T10:05:22.847Z,21.30
2022-12-20T10:08:03.665Z,22.10
2022-12-20T10:10:48.786Z,22.70
2022-12-20T10:13:34.257Z,22.50
2022-12-20T10:16:09.756Z,21.80
2022-12-20T10:19:04.363Z,22.60
2022-12-20T10:21:39.491Z,24.60
2022-12-20T10:24:18.559Z,23.30
2022-12-20T10:26:49.773Z,20.60
2022-12-20T10:29:17.033Z,21.00
2022-12-20T10:31:43.908Z,21.70
2022-12-20T10:34:10.745Z,21.50
2022-12-20T10:36:37.774Z,22.70
2022-12-20T10:39:07.076Z,21.40
2022-12-20T10:41:45.691Z,24.10
2022-12-20T10:44:15.641Z,23.50
2022-12-20T10:46:45.642Z,26.10
2022-12-20T10:49:26.485Z,21.60
2022-12-20T10:51:55.606Z,23.10
2022-12-20T10:54:31.610Z,22.90
2022-12-20T10:57:02.031Z,23.50
2022-12-20T10:59:34.779Z,24.10
2022-12-20T11:02:03.725Z,20.90
2022-12-20T11:04:30.744Z,24.00
2022-12-20T11:06:58.827Z,22.30
2022-12-20T11:09:27.921Z,20.80
2022-12-20T11:12:00.582Z,19.80
2022-12-20T11:14:31.494Z,19.00
2022-12-20T11:17:51.693Z,18.60
2022-12-20T11:20:42.647Z,20.90
2022-12-20T11:23:43.599Z,20.10
2022-12-20T11:26:25.629Z,20.10
2022-12-20T11:28:55.185Z,20.20
2022-12-20T11:31:34.838Z,20.80
2022-12-20T11:34:14.901Z,19.20
2022-12-20T11:37:18.859Z,20.30
2022-12-20T11:39:57.285Z,21.40
2022-12-20T11:42:42.118Z,21.40
2022-12-20T11:45:51.111Z,22.80
2022-12-20T11:48:40.013Z,23.30
2022-12-20T11:51:26.033Z,27.80
2022-12-20T11:56:32.692Z,26.30
2022-12-20T11:59:19.175Z,27.50
2022-12-20T12:02:12.678Z,26.50
2022-12-20T12:04:55.460Z,27.50
2022-12-20T12:07:35.366Z,28.20
2022-12-20T12:10:19.926Z,26.60
2022-12-20T12:12:52.518Z,28.50
2022-12-20T12:15:40.749Z,27.20
2022-12-20T12:18:20.425Z,32.30
2022-12-20T12:21:09.541Z,28.40
2022-12-20T12:23:52.223Z,27.90
2022-12-20T12:26:25.486Z,28.50
2022-12-20T12:29:01.680Z,28.00
2022-12-20T12:31:40.678Z,29.80
2022-12-20T12:34:16.321Z,29.70
2022-12-20T12:37:03.526Z,29.00
2022-12-20T12:40:00.949Z,28.40
2022-12-20T12:42:48.881Z,27.10
2022-12-20T12:45:25.055Z,25.80
2022-12-20T12:48:03.357Z,26.90
2022-12-20T12:50:35.067Z,28.70
2022-12-20T12:53:40.763Z,25.40
2022-12-20T12:56:43.328Z,25.60
2022-12-20T12:59:33.289Z,24.70
2022-12-20T13:02:06.209Z,25.50
2022-12-20T13:05:10.304Z,27.30
2022-12-20T13:07:36.976Z,24.10
2022-12-20T13:10:29.547Z,21.30
2022-12-20T13:13:01.251Z,18.90
2022-12-20T13:15:29.356Z,20.20
2022-12-20T13:18:18.034Z,17.80
2022-12-20T13:21:36.990Z,17.20
2022-12-20T13:24:38.150Z,16.40
2022-12-20T13:27:17.946Z,14.30
2022-12-20T13:30:22.244Z,13.60
2022-12-20T13:32:48.990Z,15.20
2022-12-20T13:35:24.299Z,14.40
2022-12-20T13:38:04.098Z,14.00
2022-12-20T13:40:39.200Z,15.60
2022-12-20T13:43:25.454Z,14.40
2022-12-20T13:45:57.689Z,14.30
2022-12-20T13:48:48.081Z,13.50
2022-12-20T13:51:25.812Z,15.00
2022-12-20T13:54:03.602Z,13.40
2022-12-20T13:56:39.651Z,13.10
2022-12-20T13:59:18.422Z,13.00
2022-12-20T14:01:57.898Z,13.30
2022-12-20T14:04:41.179Z,13.70
2022-12-20T14:07:12.839Z,14.80
2022-12-20T14:09:39.612Z,14.20
2022-12-20T14:12:12.300Z,14.50
2022-12-20T14:14:44.209Z,13.30
2022-12-20T14:17:31.339Z,12.30
2022-12-20T14:20:16.370Z,13.90
2022-12-20T14:22:59.227Z,12.20
2022-12-20T14:25:43.487Z,13.40
2022-12-20T14:28:49.977Z,12.40
2022-12-20T14:31:26.413Z,13.50
2022-12-20T14:34:07.490Z,13.00
2022-12-20T14:36:34.644Z,14.10
2022-12-20T14:39:01.436Z,12.10
2022-12-20T14:41:36.376Z,12.40
2022-12-20T14:44:24.288Z,11.80
2022-12-20T14:46:54.339Z,12.20
2022-12-20T14:49:30.327Z,13.30
2022-12-20T14:52:12.107Z,12.90
2022-12-20T14:57:34.759Z,13.60
2022-12-20T15:00:23.715Z,13.10
2022-12-20T15:02:56.507Z,14.70
2022-12-20T15:05:35.972Z,13.80
2022-12-20T15:08:20.247Z,15.90
2022-12-20T15:10:55.842Z,14.00
2022-12-20T15:13:43.984Z,13.30
2022-12-20T15:16:19.831Z,13.20
2022-12-20T15:18:48.252Z,14.00
2022-12-20T15:21:19.939Z,12.90
2022-12-20T15:23:54.508Z,12.50
2022-12-20T15:26:24.474Z,12.20
2022-12-20T15:28:52.005Z,13.60
2022-12-20T15:31:21.351Z,12.50
2022-12-20T15:33:49.003Z,12.70
2022-12-20T15:36:22.524Z,13.10
2022-12-20T15:41:37.875Z,13.10
2022-12-20T15:46:38.270Z,12.80
2022-12-20T15:49:05.088Z,12.20
2022-12-20T15:51:35.282Z,11.90
2022-12-20T15:54:10.324Z,14.50
2022-12-20T15:56:37.047Z,16.10
2022-12-20T15:59:24.415Z,14.30
2022-12-20T16:01:50.520Z,14.10
2022-12-20T16:04:19.515Z,14.40
2022-12-20T16:06:48.741Z,14.00
2022-12-20T16:09:16.451Z,11.10
2022-12-20T16:11:43.672Z,13.00
2022-12-20T16:14:16.621Z,11.50
2022-12-20T16:16:44.182Z,12.10
2022-12-20T16:19:11.045Z,12.60
2022-12-20T16:21:49.758Z,13.70
2022-12-20T16:24:19.443Z,12.70
2022-12-20T16:26:48.326Z,13.20
2022-12-20T16:29:16.103Z,12.10
2022-12-20T16:31:43.549Z,13.00
2022-12-20T16:36:40.655Z,14.40
2022-12-20T16:39:10.124Z,13.30
2022-12-20T16:41:39.099Z,12.70
2022-12-20T16:44:06.883Z,14.10
2022-12-20T16:46:34.810Z,14.00
2022-12-20T16:49:01.689Z,12.10
2022-12-20T16:51:28.390Z,13.60
2022-12-20T16:56:44.485Z,13.60
2022-12-20T16:59:21.945Z,15.90
2022-12-20T17:01:53.319Z,13.90
2022-12-20T17:04:21.532Z,14.80
2022-12-20T17:06:48.423Z,13.80
2022-12-20T17:09:16.431Z,15.10
2022-12-20T17:11:43.790Z,16.20
2022-12-20T17:16:40.958Z,15.70
2022-12-20T17:19:07.895Z,17.30
2022-12-20T17:24:26.968Z,16.60
2022-12-20T17:26:53.681Z,17.50
2022-12-20T17:29:20.608Z,16.50
2022-12-20T17:31:48.343Z,18.20
2022-12-20T17:34:26.797Z,18.70
2022-12-20T17:36:55.887Z,15.60
2022-12-20T17:39:24.371Z,13.50
2022-12-20T17:41:52.304Z,14.80
2022-12-20T17:44:23.850Z,13.60
2022-12-20T17:46:51.397Z,16.30
2022-12-20T17:49:18.388Z,15.80
2022-12-20T17:51:46.311Z,15.40
2022-12-20T17:54:24.576Z,16.40
2022-12-20T17:56:53.818Z,15.00
2022-12-20T17:59:22.407Z,13.90
2022-12-20T18:01:49.306Z,13.90
2022-12-20T18:04:16.961Z,12.80
2022-12-20T18:09:21.061Z,12.50
2022-12-20T18:11:48.453Z,13.20
2022-12-20T18:14:15.918Z,13.20
2022-12-20T18:16:43.284Z,12.70
2022-12-20T18:19:18.905Z,14.50
2022-12-20T18:21:45.810Z,14.40
2022-12-20T18:24:14.696Z,12.20
2022-12-20T18:26:42.455Z,12.60
2022-12-20T18:29:10.822Z,14.20
2022-12-20T18:31:38.307Z,13.20
2022-12-20T18:34:05.375Z,14.60
2022-12-20T18:36:35.213Z,14.50
2022-12-20T18:39:04.881Z,14.30
2022-12-20T18:41:32.410Z,15.00
2022-12-20T18:44:02.780Z,13.80
2022-12-20T18:46:30.035Z,14.10
2022-12-20T18:51:27.296Z,15.80
2022-12-20T18:53:55.827Z,14.90
2022-12-20T18:56:25.571Z,14.10
2022-12-20T18:58:52.616Z,14.40
2022-12-20T19:01:25.553Z,17.50
2022-12-20T19:03:53.602Z,16.90
2022-12-20T19:06:21.714Z,17.20
2022-12-20T19:08:49.410Z,19.30
2022-12-20T19:13:47.940Z,16.80
2022-12-20T19:16:21.235Z,16.10
2022-12-20T19:18:48.605Z,16.90
2022-12-20T19:21:24.366Z,17.60
2022-12-20T19:23:53.417Z,16.10
2022-12-20T19:26:21.894Z,17.60
2022-12-20T19:28:48.669Z,17.50
2022-12-20T19:31:21.589Z,17.70
2022-12-20T19:33:52.087Z,19.10
2022-12-20T19:36:20.762Z,20.40
2022-12-20T19:38:51.131Z,18.40
2022-12-20T19:41:19.350Z,17.90
2022-12-20T19:43:51.520Z,16.60
2022-12-20T19:46:25.100Z,16.80
2022-12-20T19:48:55.182Z,16.40
2022-12-20T19:51:22.079Z,16.60
2022-12-20T19:53:51.026Z,20.50
2022-12-20T19:56:20.805Z,17.90
2022-12-20T19:58:48.022Z,18.90
2022-12-20T20:01:18.025Z,17.90
2022-12-20T20:03:45.794Z,19.30
2022-12-20T20:06:13.625Z,18.60
2022-12-20T20:08:41.119Z,18.00
2022-12-20T20:11:09.964Z,18.90
2022-12-20T20:13:38.743Z,19.90
2022-12-20T20:16:06.952Z,16.10
2022-12-20T20:18:38.477Z,16.80
2022-12-20T20:21:08.405Z,18.50
2022-12-20T20:23:37.315Z,16.80
2022-12-20T20:26:10.367Z,19.20
2022-12-20T20:28:45.074Z,17.20
2022-12-20T20:31:17.734Z,17.40
2022-12-20T20:33:45.730Z,15.90
2022-12-20T20:36:15.445Z,17.40
2022-12-20T20:38:42.217Z,16.80
2022-12-20T20:41:09.545Z,17.70
2022-12-20T20:43:38.278Z,16.30
2022-12-20T20:46:07.985Z,16.20
2022-12-20T20:48:35.553Z,17.40
2022-12-20T20:51:02.503Z,17.40
2022-12-20T20:53:33.420Z,17.30
2022-12-20T20:56:02.098Z,17.10
2022-12-20T20:58:29.114Z,17.30
2022-12-20T21:01:01.099Z,20.00
2022-12-20T21:03:29.838Z,18.40
2022-12-20T21:08:43.646Z,20.60
2022-12-20T21:11:10.846Z,19.10
2022-12-20T21:13:37.775Z,17.80
2022-12-20T21:16:06.603Z,21.70
2022-12-20T21:18:33.389Z,20.40
2022-12-20T21:21:05.993Z,17.70
2022-12-20T21:23:32.707Z,18.90
2022-12-20T21:25:59.520Z,19.70
2022-12-20T21:28:27.716Z,19.30
2022-12-20T21:30:59.789Z,20.20
2022-12-20T21:33:27.320Z,22.60
2022-12-20T21:36:04.690Z,22.70
2022-12-20T21:38:31.883Z,21.00
2022-12-20T21:41:00.445Z,22.90
2022-12-20T21:43:27.821Z,22.80
2022-12-20T21:45:54.755Z,24.30
2022-12-20T21:48:22.284Z,23.10
2022-12-20T21:51:03.720Z,23.00
2022-12-20T21:53:31.873Z,20.10
2022-12-20T21:56:00.329Z,21.10
2022-12-20T21:58:29.199Z,22.20
2022-12-20T22:00:57.322Z,22.20
2022-12-20T22:03:25.311Z,22.50
2022-12-20T22:05:54.343Z,20.00
2022-12-20T22:08:22.219Z,22.90
2022-12-20T22:10:57.314Z,22.90
2022-12-20T22:13:24.098Z,24.40
2022-12-20T22:15:51.358Z,25.30
2022-12-20T22:18:18.211Z,24.30
2022-12-20T22:20:45.997Z,20.50
2022-12-20T22:23:13.152Z,23.70
2022-12-20T22:25:40.607Z,23.90
2022-12-20T22:28:07.422Z,24.30
2022-12-20T22:30:34.682Z,26.10
2022-12-20T22:33:01.455Z,22.80
2022-12-20T22:35:28.193Z,27.50
2022-12-20T22:37:54.951Z,27.40
2022-12-20T22:40:23.193Z,26.90
2022-12-20T22:42:49.997Z,24.10
2022-12-20T22:45:16.928Z,25.90
2022-12-20T22:47:43.693Z,26.30
2022-12-20T22:50:11.099Z,24.90
2022-12-20T22:52:37.941Z,27.00
2022-12-20T22:55:05.063Z,26.00
2022-12-20T22:57:34.795Z,23.50
2022-12-20T23:00:01.981Z,25.30
2022-12-20T23:02:28.902Z,27.30
2022-12-20T23:04:55.848Z,25.90
2022-12-20T23:07:22.919Z,23.90
2022-12-20T23:09:49.684Z,26.90
2022-12-20T23:12:34.942Z,27.80
2022-12-20T23:15:07.522Z,30.60
2022-12-20T23:17:34.272Z,31.40
2022-12-20T23:20:19.917Z,29.40
2022-12-20T23:22:46.664Z,29.90
2022-12-20T23:25:21.251Z,32.40
2022-12-20T23:27:49.585Z,29.40
2022-12-20T23:30:19.577Z,28.70
2022-12-20T23:32:46.355Z,27.40
2022-12-20T23:35:19.073Z,34.60
2022-12-20T23:37:46.505Z,29.20
2022-12-20T23:40:15.261Z,28.90
2022-12-20T23:42:42.375Z,31.40
2022-12-20T23:45:10.669Z,31.90
2022-12-20T23:47:37.483Z,31.30
2022-12-20T23:50:04.843Z,29.60
2022-12-20T23:52:31.546Z,32.50
2022-12-20T23:54:58.391Z,29.70
2022-12-20T23:57:25.158Z,31.70
2022-12-20T23:59:51.921Z,32.80
